Emmett, Kansas
Current Conditions -  °F | °C
As of 3:53 AM on Friday 19 Dec 2014 (Local Time) from KTOP Reporting Station
Overcast Overcast  
Wind Chill: 27°   Ceiling: 700
Heat Index: 32°   Visibility: 7mi
Dew Point: 29°   Wind: 5mph
Humidity: 88%   Direction: 300°WNW
Pressure: 30.26"   Gusts: NA
Location:  39.31°N, 96.06°W
Report Text: KTOP 190953Z AUTO 30004KT 7SM OVC007 00/M02 A3026 RMK AO2 SLP254 T00001017
Loading
Personal Weather Stations






























Interactive Weather Map New forecast layout! Learn more

10-Day Weather Forecast

Advertisements
Track Severe Weather on mobile